Terminal Aerodrome Forecast
Issued by NWS Grand Forks, ND

Home | Current Version | Previous Version | Graphics & Text | Print | Product List | Glossary On
Versions: 1 2 3 4 5 6 7 8 9 10 11 12 13 14 15 16 17 18 19 20 21
577
FTUS43 KFGF 201734 AAC
TAFFAR
TAF AMD
KFAR 201734Z 2018/2118 25015G22KT 2SM BR BKN003 BKN050
     FM201900 28015G24KT 1 1/2SM BR VCSH OVC015
     FM202100 30016G24KT 4SM BR BKN015
     FM210000 28012KT P6SM FEW070
     FM211000 18009KT P6SM BKN045
     FM211400 19010KT P6SM SCT110=

USA.gov is the U.S. government's official web portal to all federal, state and local government web resources and services.